Time;durP1;ratioP1;P1;durP2;ratioP2;P2;SDS_P1;SDS_P2;PMS_P1;PMS_P2;Temp;Humidity;BMP_temperature;BMP_pressure;BME280_temperature;BME280_humidity;BME280_pressure;Samples;Min_cycle;Max_cycle;Signal;HPM_P1;HPM_P2
2023/03/15 00:02:10;;;;;;;4.43;1.27;;;;;;;1.56;82.92;99999.00;5016719;28;20231;-80
2023/03/15 00:04:36;;;;;;;2.00;1.13;;;;;;;1.51;83.86;99995.56;5017145;28;20208;-80
2023/03/15 00:07:03;;;;;;;2.73;1.30;;;;;;;1.52;83.97;99981.81;5016641;28;20693;-81
2023/03/15 00:09:29;;;;;;;5.07;1.43;;;;;;;1.53;83.78;99991.28;5016140;28;20227;-80
2023/03/15 00:11:56;;;;;;;2.53;1.43;;;;;;;1.51;83.62;99982.69;5004172;28;20204;-79
2023/03/15 00:14:22;;;;;;;3.37;1.20;;;;;;;1.48;83.27;99996.34;4996616;28;20203;-81
2023/03/15 00:16:49;;;;;;;3.90;1.43;;;;;;;1.46;83.31;100020.34;4996629;28;20256;-80
2023/03/15 00:19:16;;;;;;;9.73;2.60;;;;;;;1.46;82.16;100028.06;4997092;28;20286;-80
2023/03/15 00:21:43;;;;;;;3.70;1.50;;;;;;;1.49;81.27;100040.97;4996341;28;20270;-80
2023/03/15 00:24:10;;;;;;;7.90;1.60;;;;;;;1.63;81.07;100061.69;4996229;28;20277;-82
2023/03/15 00:26:37;;;;;;;4.30;1.10;;;;;;;1.72;82.08;100067.78;4996469;28;20212;-81
2023/03/15 00:29:04;;;;;;;3.77;1.20;;;;;;;1.66;82.54;100069.44;4990740;28;20208;-80
2023/03/15 00:31:30;;;;;;;4.97;1.33;;;;;;;1.62;80.70;100075.41;4996010;28;20235;-82
2023/03/15 00:33:57;;;;;;;3.20;1.37;;;;;;;1.68;80.52;100103.75;4996443;28;20209;-81
2023/03/15 00:36:25;;;;;;;4.00;1.10;;;;;;;1.49;80.17;100125.84;4996904;28;20209;-81
2023/03/15 00:38:53;;;;;;;4.07;1.53;;;;;;;1.51;80.93;100125.00;4996297;28;20239;-80
2023/03/15 00:41:21;;;;;;;4.17;1.40;;;;;;;1.57;80.23;100124.22;4996127;28;20233;-81
2023/03/15 00:43:48;;;;;;;4.37;1.30;;;;;;;1.68;80.39;100138.06;4996285;28;20209;-81
2023/03/15 00:46:15;;;;;;;4.27;1.33;;;;;;;1.75;80.87;100152.75;4995994;28;20246;-81
2023/03/15 00:48:42;;;;;;;4.90;1.37;;;;;;;1.76;80.09;100169.91;4995791;28;20240;-82
2023/03/15 00:51:10;;;;;;;4.90;1.50;;;;;;;1.69;80.21;100183.53;4995851;28;20256;-81
2023/03/15 00:53:40;;;;;;;5.07;1.60;;;;;;;1.69;81.54;100173.25;4995710;28;20209;-81
2023/03/15 00:56:08;;;;;;;3.43;1.13;;;;;;;1.71;79.78;100171.56;4996153;28;20240;-82
2023/03/15 00:58:35;;;;;;;3.70;1.67;;;;;;;1.72;79.65;100186.13;4997197;28;20243;-80
2023/03/15 01:01:08;;;;;;;6.17;1.33;;;;;;;1.69;80.89;100178.41;5015515;28;20280;-81
2023/03/15 01:03:35;;;;;;;6.77;1.40;;;;;;;1.73;80.70;100177.59;5015625;28;20262;-81
2023/03/15 01:06:05;;;;;;;7.70;1.70;;;;;;;1.70;78.66;100184.41;5015868;28;20210;-81
2023/03/15 01:08:32;;;;;;;6.30;1.70;;;;;;;1.76;79.12;100205.94;5015971;28;20681;-81
2023/03/15 01:11:03;;;;;;;7.67;1.30;;;;;;;1.77;79.60;100194.78;5015830;28;20254;-81
2023/03/15 01:13:29;;;;;;;5.73;1.27;;;;;;;1.86;78.34;100206.91;5015215;28;20234;-81
2023/03/15 01:15:56;;;;;;;5.50;1.30;;;;;;;1.92;79.01;100221.56;5015698;28;20724;-80
2023/03/15 01:18:22;;;;;;;7.50;1.60;;;;;;;1.94;78.26;100230.16;5015694;28;20237;-81
2023/03/15 01:20:48;;;;;;;6.53;1.33;;;;;;;1.99;77.92;100231.09;5015667;28;20222;-81
2023/03/15 01:23:15;;;;;;;5.77;1.40;;;;;;;2.07;78.53;100237.19;5015597;28;20258;-81
2023/03/15 01:25:41;;;;;;;11.60;1.77;;;;;;;2.06;78.21;100235.50;5015508;28;20265;-81
2023/03/15 01:28:09;;;;;;;6.40;1.70;;;;;;;2.04;77.32;100251.75;5002940;28;20670;-80
2023/03/15 01:30:35;;;;;;;2.63;1.40;;;;;;;2.06;79.69;100262.91;4995535;28;20262;-81
2023/03/15 01:33:01;;;;;;;4.50;1.50;;;;;;;1.98;78.60;100255.09;4995312;28;20234;-80
2023/03/15 01:35:28;;;;;;;7.67;1.80;;;;;;;1.96;78.49;100239.66;4995284;28;20278;-80
2023/03/15 01:37:54;;;;;;;3.97;1.50;;;;;;;2.02;79.59;100245.72;4995783;28;20235;-81
2023/03/15 01:40:21;;;;;;;3.33;1.50;;;;;;;1.96;78.56;100225.91;4995395;28;20274;-80
2023/03/15 01:43:14;;;;;;;5.20;1.60;;;;;;;1.94;77.88;100243.91;4994678;28;20223;-81
2023/03/15 01:46:17;;;;;;;3.70;0.90;;;;;;;1.89;78.91;100250.72;4995692;28;20254;-82
2023/03/15 01:48:48;;;;;;;8.70;1.27;;;;;;;1.88;77.58;100256.69;4988406;28;20304;-81
2023/03/15 01:51:20;;;;;;;2.97;1.13;;;;;;;1.91;76.18;100279.03;4995114;28;20254;-80
2023/03/15 01:53:53;;;;;;;2.17;1.13;;;;;;;2.05;77.47;100292.97;4994899;28;20231;-80
2023/03/15 01:56:19;;;;;;;8.87;1.50;;;;;;;2.04;76.13;100310.94;4995323;28;20713;-82
2023/03/15 01:58:48;;;;;;;3.30;1.20;;;;;;;2.10;76.93;100300.72;4995268;28;20231;-80
2023/03/15 02:01:15;;;;;;;6.77;1.70;;;;;;;2.07;76.84;100311.00;4994726;28;20223;-80
2023/03/15 02:03:45;;;;;;;7.03;1.57;;;;;;;2.18;76.66;100301.69;4994307;28;20265;-80
2023/03/15 02:06:16;;;;;;;3.50;1.23;;;;;;;2.24;75.40;100309.53;4995091;28;20212;-80
2023/03/15 02:08:46;;;;;;;4.00;1.40;;;;;;;2.28;75.12;100339.63;4995141;28;20671;-80
2023/03/15 02:11:13;;;;;;;4.40;1.27;;;;;;;2.34;74.90;100362.03;4995121;28;20261;-80
2023/03/15 02:13:41;;;;;;;6.23;1.77;;;;;;;2.40;74.09;100367.25;4994645;28;20257;-80
2023/03/15 02:16:09;;;;;;;4.23;1.20;;;;;;;2.36;73.24;100389.53;4995231;28;20231;-80
2023/03/15 02:18:36;;;;;;;7.13;1.63;;;;;;;2.41;73.44;100406.75;4995331;28;20212;-80
2023/03/15 02:21:12;;;;;;;8.00;1.50;;;;;;;2.14;72.88;100445.00;4998720;28;20227;-83
2023/03/15 02:23:38;;;;;;;2.97;1.00;;;;;;;2.16;72.42;100455.31;4999096;28;20269;-80
2023/03/15 02:26:17;;;;;;;3.43;1.07;;;;;;;2.13;72.91;100465.56;4999034;28;20287;-80
2023/03/15 02:28:45;;;;;;;3.97;1.33;;;;;;;2.17;72.06;100467.34;4998898;28;20207;-80
2023/03/15 02:31:12;;;;;;;7.80;1.53;;;;;;;2.20;71.91;100475.13;4998057;28;20267;-80
2023/03/15 02:33:42;;;;;;;3.27;1.10;;;;;;;2.33;72.45;100497.63;4998540;28;20238;-81
2023/03/15 02:36:14;;;;;;;4.73;1.10;;;;;;;2.38;74.52;100465.09;4999036;28;20220;-80
2023/03/15 02:38:41;;;;;;;5.53;1.30;;;;;;;2.32;73.16;100459.88;4999127;28;20236;-80
2023/03/15 02:41:07;;;;;;;4.03;1.20;;;;;;;2.46;73.98;100461.75;4998332;28;20231;-80
2023/03/15 02:43:35;;;;;;;7.60;1.67;;;;;;;2.53;73.46;100454.13;4998529;28;20745;-80
2023/03/15 02:46:03;;;;;;;3.67;1.00;;;;;;;2.59;73.20;100473.97;4998849;28;20213;-79
2023/03/15 02:48:33;;;;;;;6.97;1.77;;;;;;;2.30;72.95;100494.13;4998854;28;20686;-79
2023/03/15 02:51:00;;;;;;;7.53;1.60;;;;;;;2.32;73.32;100497.59;4999472;28;20273;-80
2023/03/15 02:53:28;;;;;;;4.60;1.57;;;;;;;2.17;74.18;100496.53;4998399;28;20708;-80
2023/03/15 02:55:55;;;;;;;4.60;1.20;;;;;;;2.31;74.62;100470.13;4998709;28;20578;-80
2023/03/15 02:58:21;;;;;;;5.77;1.53;;;;;;;2.21;76.81;100445.94;4998146;28;20248;-80
2023/03/15 03:00:47;;;;;;;3.90;1.70;;;;;;;2.29;75.66;100418.59;4990439;28;20276;-80
2023/03/15 03:03:15;;;;;;;7.13;1.80;;;;;;;2.17;75.88;100408.13;4998087;28;20347;-80
2023/03/15 03:05:41;;;;;;;4.83;1.70;;;;;;;2.21;76.18;100399.59;4998931;28;20266;-80
2023/03/15 03:08:08;;;;;;;2.77;1.60;;;;;;;2.30;76.31;100389.44;4998707;28;20231;-80
2023/03/15 03:10:34;;;;;;;5.87;3.13;;;;;;;2.29;76.97;100377.38;4999325;28;20228;-80
2023/03/15 03:13:01;;;;;;;6.87;2.30;;;;;;;2.30;77.18;100353.38;4999162;28;20210;-80
2023/03/15 03:15:27;;;;;;;8.53;2.87;;;;;;;2.35;77.71;100345.69;4999685;28;20207;-80
2023/03/15 03:17:53;;;;;;;11.23;2.17;;;;;;;2.35;77.74;100350.84;4999386;28;20227;-80
2023/03/15 03:20:21;;;;;;;4.87;2.93;;;;;;;2.17;79.30;100333.44;4999493;28;20278;-80
2023/03/15 03:22:47;;;;;;;4.97;3.10;;;;;;;2.21;79.29;100312.03;4999037;28;20227;-80
2023/03/15 03:25:14;;;;;;;6.53;2.80;;;;;;;2.20;80.19;100300.03;4999472;28;20207;-79
2023/03/15 03:27:41;;;;;;;5.63;3.20;;;;;;;2.21;80.26;100275.13;4998999;28;20238;-80
2023/03/15 03:30:10;;;;;;;8.50;4.10;;;;;;;2.24;81.47;100252.88;4998395;28;20238;-80
2023/03/15 03:32:36;;;;;;;5.00;4.33;;;;;;;2.20;81.72;100233.09;4999434;28;20238;-80
2023/03/15 03:35:03;;;;;;;6.87;4.53;;;;;;;2.19;82.21;100215.88;4999499;28;20217;-80
2023/03/15 03:37:30;;;;;;;7.03;4.37;;;;;;;2.23;82.84;100199.63;5000131;28;20204;-80
2023/03/15 03:39:57;;;;;;;5.87;5.37;;;;;;;2.21;83.19;100177.28;4999056;28;20278;-80
2023/03/15 03:42:23;;;;;;;9.27;5.20;;;;;;;2.26;83.61;100171.34;4999485;28;20581;-79
2023/03/15 03:44:50;;;;;;;8.67;5.27;;;;;;;2.19;83.58;100164.38;4999324;28;20235;-79
2023/03/15 03:47:16;;;;;;;7.20;6.20;;;;;;;2.29;83.46;100150.75;5000192;28;20275;-80
2023/03/15 03:49:42;;;;;;;7.83;6.27;;;;;;;2.36;83.52;100147.41;4999684;28;20235;-79
2023/03/15 03:52:09;;;;;;;11.17;6.27;;;;;;;2.02;84.41;100158.19;4999498;28;20255;-80
2023/03/15 03:54:37;;;;;;;7.30;6.60;;;;;;;1.87;86.37;100128.88;4998796;28;20239;-80
2023/03/15 03:57:04;;;;;;;10.17;7.70;;;;;;;1.90;86.67;100102.28;4999000;28;20216;-80
2023/03/15 03:59:30;;;;;;;11.60;6.87;;;;;;;1.93;87.18;100077.44;4998366;28;20205;-80
2023/03/15 04:01:56;;;;;;;9.03;5.93;;;;;;;2.02;87.10;100076.66;4999241;28;20219;-79
2023/03/15 04:04:25;;;;;;;6.90;6.20;;;;;;;2.06;86.84;100072.41;4998408;28;20227;-79
2023/03/15 04:06:53;;;;;;;6.73;6.00;;;;;;;2.02;87.40;100068.94;4998311;28;20207;-80
2023/03/15 04:09:20;;;;;;;8.87;6.33;;;;;;;1.85;87.83;100068.78;4997887;28;20233;-80
2023/03/15 04:11:48;;;;;;;11.13;6.63;;;;;;;1.55;89.16;100051.31;4997857;28;20228;-80
2023/03/15 04:14:14;;;;;;;8.10;7.13;;;;;;;1.68;89.70;100017.16;4998031;28;20204;-80
2023/03/15 04:16:41;;;;;;;8.17;7.30;;;;;;;1.61;90.73;100005.09;4998477;28;20227;-80
2023/03/15 04:19:08;;;;;;;10.13;7.27;;;;;;;1.75;90.05;99997.50;4998553;28;20203;-80
2023/03/15 04:21:35;;;;;;;9.37;7.23;;;;;;;1.73;89.92;99997.47;4998464;28;20589;-80
2023/03/15 04:24:02;;;;;;;7.93;7.27;;;;;;;1.61;91.16;99991.38;4998349;28;20231;-80
2023/03/15 04:26:29;;;;;;;8.00;7.40;;;;;;;1.79;90.25;99978.66;4999206;28;20585;-80
2023/03/15 04:28:58;;;;;;;8.10;7.47;;;;;;;1.53;91.10;100001.56;4998509;28;20214;-80
2023/03/15 04:31:26;;;;;;;8.60;7.20;;;;;;;1.60;91.00;99990.47;4998470;28;20239;-81
2023/03/15 04:33:52;;;;;;;9.07;7.43;;;;;;;1.60;91.64;99993.06;4998475;28;20219;-81
2023/03/15 04:36:19;;;;;;;8.07;7.27;;;;;;;1.64;92.30;99993.97;4998825;28;20231;-80
2023/03/15 04:38:46;;;;;;;9.10;7.03;;;;;;;1.72;91.97;99990.59;4998796;28;20210;-80
2023/03/15 04:41:12;;;;;;;7.67;6.87;;;;;;;1.54;93.10;99991.28;4997848;28;20242;-81
2023/03/15 04:43:39;;;;;;;9.00;8.10;;;;;;;1.64;92.86;99981.09;4997452;28;20231;-80
2023/03/15 04:46:07;;;;;;;8.90;6.70;;;;;;;1.60;93.18;99977.63;4997980;28;20599;-80
2023/03/15 04:48:34;;;;;;;10.77;7.27;;;;;;;1.64;92.94;99969.09;4997499;28;20670;-80
2023/03/15 04:51:00;;;;;;;12.17;7.17;;;;;;;1.64;93.13;99983.66;4998108;28;20679;-80
2023/03/15 04:53:27;;;;;;;8.73;7.43;;;;;;;1.57;92.96;99985.31;4998016;28;20250;-80
2023/03/15 04:55:53;;;;;;;8.30;6.57;;;;;;;1.55;92.11;99998.16;4997521;28;20594;-80
2023/03/15 04:58:20;;;;;;;6.50;5.90;;;;;;;1.67;92.26;99994.00;4997495;28;20203;-81
2023/03/15 05:00:46;;;;;;;6.63;6.13;;;;;;;1.73;92.24;99997.47;4997077;28;20282;-80
2023/03/15 05:03:14;;;;;;;6.70;6.20;;;;;;;1.87;91.64;100007.91;4997167;28;20274;-81
2023/03/15 05:05:40;;;;;;;7.37;4.90;;;;;;;1.93;91.39;100027.69;4996781;28;20207;-81
2023/03/15 05:08:06;;;;;;;7.10;6.00;;;;;;;1.81;90.93;100048.16;4997402;28;20243;-81
2023/03/15 05:10:33;;;;;;;6.63;6.03;;;;;;;1.90;91.56;100055.97;4996937;28;20760;-81
2023/03/15 05:13:00;;;;;;;5.93;5.33;;;;;;;2.00;91.29;100062.91;4997365;28;20299;-81
2023/03/15 05:15:27;;;;;;;5.83;5.27;;;;;;;1.98;90.70;100069.75;4997489;28;20211;-81
2023/03/15 05:17:54;;;;;;;8.37;5.37;;;;;;;2.08;90.22;100083.59;4996328;28;20209;-80
2023/03/15 05:20:24;;;;;;;8.93;5.53;;;;;;;2.10;90.80;100103.38;4997268;28;20235;-81
2023/03/15 05:22:52;;;;;;;9.63;5.50;;;;;;;2.09;90.74;100103.34;4996390;28;20254;-79
2023/03/15 05:25:18;;;;;;;6.37;5.10;;;;;;;2.12;90.82;100100.78;4997099;28;20214;-81
2023/03/15 05:27:46;;;;;;;6.80;4.30;;;;;;;2.08;91.10;100105.06;4995608;28;20255;-80
2023/03/15 05:30:14;;;;;;;7.00;5.03;;;;;;;2.10;91.87;100105.94;4994665;28;20236;-80
2023/03/15 05:32:43;;;;;;;5.77;5.20;;;;;;;1.94;92.20;100102.34;4996057;28;20304;-80
2023/03/15 05:35:11;;;;;;;8.27;5.43;;;;;;;2.09;92.34;100091.34;4997183;28;20207;-80
2023/03/15 05:37:39;;;;;;;6.73;4.87;;;;;;;2.06;91.73;100095.59;4996161;28;20239;-80
2023/03/15 05:40:08;;;;;;;5.40;4.77;;;;;;;2.02;92.30;100094.69;4995872;28;20744;-79
2023/03/15 05:42:34;;;;;;;5.27;4.17;;;;;;;1.87;92.57;100105.69;4995526;28;20211;-80
2023/03/15 05:45:00;;;;;;;4.77;4.37;;;;;;;1.87;92.99;100107.41;4996017;28;20228;-80
2023/03/15 05:47:27;;;;;;;5.47;4.50;;;;;;;1.91;93.07;100101.47;4995900;28;20257;-79
2023/03/15 05:49:53;;;;;;;4.87;4.30;;;;;;;1.99;93.11;100099.81;4996018;28;20223;-79
2023/03/15 05:52:20;;;;;;;6.07;4.33;;;;;;;1.88;93.20;100098.84;4995340;28;20203;-79
2023/03/15 05:54:47;;;;;;;6.37;4.57;;;;;;;1.84;93.38;100102.22;4996595;28;20205;-79
2023/03/15 05:57:13;;;;;;;9.10;4.37;;;;;;;1.77;93.82;100101.31;4995412;28;20232;-80
2023/03/15 05:59:40;;;;;;;5.70;4.40;;;;;;;1.89;94.01;100090.28;4995874;28;20242;-80
2023/03/15 06:02:07;;;;;;;6.77;4.10;;;;;;;1.83;93.43;100103.09;4995567;28;20203;-79
2023/03/15 06:04:35;;;;;;;3.73;3.43;;;;;;;1.91;93.26;100120.31;4995717;28;20270;-80
2023/03/15 06:07:01;;;;;;;4.17;3.87;;;;;;;1.90;92.78;100122.88;4996058;28;20217;-80
2023/03/15 06:09:27;;;;;;;4.23;3.33;;;;;;;1.85;92.06;100140.84;4995245;28;20254;-79
2023/03/15 06:11:56;;;;;;;3.13;2.83;;;;;;;1.85;92.32;100150.28;4995786;28;20211;-79
2023/03/15 06:14:22;;;;;;;5.93;3.63;;;;;;;1.83;91.96;100155.41;4995788;28;20205;-79
2023/03/15 06:16:49;;;;;;;4.80;3.80;;;;;;;1.79;93.01;100156.22;4995535;28;20207;-81
2023/03/15 06:19:15;;;;;;;4.77;3.50;;;;;;;1.78;93.44;100162.19;4994950;28;20710;-80
2023/03/15 06:21:41;;;;;;;4.27;3.00;;;;;;;1.72;93.46;100154.41;4994355;28;20228;-79
2023/03/15 06:24:08;;;;;;;4.40;4.10;;;;;;;1.70;94.19;100150.94;4994549;28;20260;-79
2023/03/15 06:26:34;;;;;;;4.90;3.23;;;;;;;1.65;94.01;100147.47;4994616;28;20250;-79
2023/03/15 06:29:02;;;;;;;3.90;3.60;;;;;;;1.74;95.03;100147.56;4994472;28;20692;-80
2023/03/15 06:31:28;;;;;;;5.10;3.50;;;;;;;1.72;95.03;100144.13;4994384;28;20897;-80
2023/03/15 06:33:55;;;;;;;4.40;3.27;;;;;;;1.80;95.65;100132.19;4994770;28;20203;-80
2023/03/15 06:36:23;;;;;;;3.90;3.60;;;;;;;1.81;95.42;100143.38;4995318;28;20231;-80
2023/03/15 06:38:52;;;;;;;4.47;3.53;;;;;;;1.76;95.67;100138.16;4994432;28;20218;-79
2023/03/15 06:41:20;;;;;;;8.70;3.87;;;;;;;1.86;95.12;100134.84;4994113;28;20322;-79
2023/03/15 06:43:46;;;;;;;5.27;3.57;;;;;;;1.85;93.48;100163.16;4994626;28;20250;-79
2023/03/15 06:46:14;;;;;;;4.77;3.67;;;;;;;1.81;94.04;100176.84;4994602;28;20215;-78
2023/03/15 06:48:40;;;;;;;4.03;3.00;;;;;;;1.73;93.95;100174.16;4994778;28;20289;-80
2023/03/15 06:51:08;;;;;;;4.47;3.43;;;;;;;1.82;93.99;100181.97;4994537;28;20240;-79
2023/03/15 06:53:34;;;;;;;4.30;3.17;;;;;;;1.92;93.75;100193.25;4994808;28;20208;-79
2023/03/15 06:56:00;;;;;;;5.63;3.60;;;;;;;1.97;92.98;100219.91;4994994;28;20235;-81
2023/03/15 06:58:27;;;;;;;4.83;3.57;;;;;;;1.95;93.05;100224.19;4994949;28;20208;-81
2023/03/15 07:00:53;;;;;;;4.67;3.30;;;;;;;2.09;92.90;100230.38;4987340;28;20274;-80
2023/03/15 07:03:22;;;;;;;4.13;3.43;;;;;;;2.07;93.26;100234.63;4994234;28;20267;-80
2023/03/15 07:05:51;;;;;;;3.40;3.10;;;;;;;2.11;92.49;100238.97;4996639;28;20267;-80
2023/03/15 07:08:17;;;;;;;3.37;3.03;;;;;;;2.19;92.27;100247.63;4998399;28;20213;-80
2023/03/15 07:10:44;;;;;;;3.60;3.10;;;;;;;2.33;92.22;100264.97;4998410;28;20597;-79
2023/03/15 07:13:10;;;;;;;5.73;3.73;;;;;;;2.37;91.85;100277.91;4998931;28;20211;-78
2023/03/15 07:15:37;;;;;;;5.43;3.83;;;;;;;2.47;91.55;100293.47;4998437;28;20227;-79
2023/03/15 07:18:03;;;;;;;4.10;3.13;;;;;;;2.38;90.76;100307.97;4998141;28;20212;-79
2023/03/15 07:20:31;;;;;;;4.63;3.33;;;;;;;2.49;90.83;100323.53;4997819;28;20223;-78
2023/03/15 07:22:57;;;;;;;4.60;4.13;;;;;;;2.56;90.35;100339.97;4997335;28;20627;-79
2023/03/15 07:25:24;;;;;;;3.97;3.57;;;;;;;2.73;89.62;100353.88;4998195;28;20259;-80
2023/03/15 07:27:51;;;;;;;3.90;3.60;;;;;;;2.72;89.20;100370.22;4998234;28;20236;-80
2023/03/15 07:30:19;;;;;;;6.00;3.60;;;;;;;2.58;89.14;100395.81;4997791;28;20271;-80
2023/03/15 07:32:46;;;;;;;5.53;4.00;;;;;;;2.54;89.35;100394.03;4997475;28;20666;-79
2023/03/15 07:35:12;;;;;;;4.33;3.70;;;;;;;2.62;89.63;100398.41;4996458;28;20239;-79
2023/03/15 07:37:40;;;;;;;5.70;4.37;;;;;;;2.77;89.90;100384.03;4997298;28;20231;-80
2023/03/15 07:40:09;;;;;;;4.67;4.03;;;;;;;2.82;89.50;100404.69;4997634;28;20734;-80
2023/03/15 07:42:36;;;;;;;4.50;3.53;;;;;;;2.86;89.13;100423.66;4997818;28;20216;-80
2023/03/15 07:45:02;;;;;;;4.97;3.80;;;;;;;2.80;88.52;100439.91;4996992;28;20799;-80
2023/03/15 07:47:29;;;;;;;4.93;4.17;;;;;;;2.80;88.30;100451.94;4997787;28;20270;-79
2023/03/15 07:49:55;;;;;;;4.73;3.90;;;;;;;2.86;88.27;100454.59;4997415;28;20784;-79
2023/03/15 07:52:22;;;;;;;4.10;3.70;;;;;;;2.60;88.58;100465.41;4997304;28;20702;-80
2023/03/15 07:54:49;;;;;;;3.90;3.60;;;;;;;2.65;88.81;100468.03;4997592;28;20218;-79
2023/03/15 07:57:16;;;;;;;3.73;3.43;;;;;;;2.59;87.84;100477.41;4997294;28;20240;-78
2023/03/15 07:59:42;;;;;;;4.50;4.07;;;;;;;2.63;87.81;100480.91;4996518;28;20244;-79
2023/03/15 08:02:10;;;;;;;4.47;4.07;;;;;;;2.81;88.14;100484.56;4995386;28;20255;-79
2023/03/15 08:04:37;;;;;;;3.90;3.47;;;;;;;2.84;88.12;100469.16;4996217;28;20774;-79
2023/03/15 08:07:03;;;;;;;4.83;4.23;;;;;;;2.68;87.73;100479.25;4997383;28;20566;-80
2023/03/15 08:09:31;;;;;;;5.07;3.97;;;;;;;2.80;88.27;100478.56;4996962;28;20209;-79
2023/03/15 08:11:59;;;;;;;3.30;3.00;;;;;;;2.65;86.32;100506.69;4996609;28;20631;-78
2023/03/15 08:14:26;;;;;;;3.73;3.40;;;;;;;2.64;85.41;100530.75;4997541;28;20209;-79
2023/03/15 08:16:52;;;;;;;5.93;3.73;;;;;;;2.82;85.58;100549.06;4995594;28;20208;-79
2023/03/15 08:19:18;;;;;;;3.77;3.47;;;;;;;3.00;86.39;100539.84;4997454;28;20231;-80
2023/03/15 08:21:45;;;;;;;5.00;2.97;;;;;;;2.82;85.59;100566.25;4996850;28;20660;-80
2023/03/15 08:24:11;;;;;;;3.20;2.90;;;;;;;2.92;84.13;100587.00;4997141;28;20224;-80
2023/03/15 08:26:38;;;;;;;3.87;3.10;;;;;;;2.86;84.99;100596.38;4997241;28;20259;-81
2023/03/15 08:29:05;;;;;;;5.00;4.20;;;;;;;3.06;85.08;100589.78;4997255;28;20212;-80
2023/03/15 08:31:32;;;;;;;2.97;2.40;;;;;;;3.32;84.43;100613.34;4996408;28;20264;-80
2023/03/15 08:33:58;;;;;;;4.50;2.63;;;;;;;3.51;83.75;100640.28;4997337;28;20800;-80
2023/03/15 08:36:24;;;;;;;6.43;2.93;;;;;;;3.60;82.25;100672.22;4997716;28;20244;-82
2023/03/15 08:38:51;;;;;;;5.87;2.53;;;;;;;3.44;82.21;100709.84;4994655;28;20230;-80
2023/03/15 08:41:17;;;;;;;4.80;2.50;;;;;;;3.33;82.85;100715.72;4996056;28;20658;-80
2023/03/15 08:43:43;;;;;;;2.70;2.50;;;;;;;3.36;82.38;100715.75;4995497;28;20213;-79
2023/03/15 08:46:11;;;;;;;2.83;2.63;;;;;;;3.49;81.26;100731.41;4997708;28;20216;-81
2023/03/15 08:48:38;;;;;;;3.67;2.37;;;;;;;3.63;81.51;100752.25;4996927;28;20587;-79
2023/03/15 08:51:06;;;;;;;4.03;1.97;;;;;;;3.51;81.19;100768.44;4996182;28;20265;-81
2023/03/15 08:53:32;;;;;;;3.80;2.50;;;;;;;3.41;80.44;100784.59;4996960;28;20208;-80
2023/03/15 08:55:59;;;;;;;3.23;2.30;;;;;;;3.45;80.25;100809.63;4996692;28;20674;-80
2023/03/15 08:58:26;;;;;;;3.97;2.60;;;;;;;3.53;80.55;100813.22;4992729;28;20206;-81
2023/03/15 09:00:52;;;;;;;4.23;2.73;;;;;;;3.41;82.13;100807.84;4995112;28;20248;-81
2023/03/15 09:03:21;;;;;;;6.30;2.17;;;;;;;3.51;81.06;100792.53;4995374;28;20239;-81
2023/03/15 09:05:48;;;;;;;4.83;2.00;;;;;;;3.47;78.48;100831.16;4996474;28;20231;-80
2023/03/15 09:08:15;;;;;;;3.03;2.70;;;;;;;3.50;78.96;100865.63;4996479;28;20208;-80
2023/03/15 09:10:42;;;;;;;3.90;1.90;;;;;;;3.62;80.08;100858.94;4997633;28;20271;-80
2023/03/15 09:13:24;;;;;;;3.40;2.40;;;;;;;3.81;79.94;100858.38;4997200;28;20266;-80
2023/03/15 09:15:52;;;;;;;2.13;1.70;;;;;;;3.68;78.46;100880.53;4998451;28;20207;-81
2023/03/15 09:18:20;;;;;;;2.60;1.90;;;;;;;3.88;78.94;100886.03;4999182;28;20607;-80
2023/03/15 09:20:47;;;;;;;3.50;1.90;;;;;;;4.02;78.68;100899.16;4998383;28;20261;-81
2023/03/15 09:23:14;;;;;;;2.40;1.60;;;;;;;4.07;76.62;100936.28;4998241;28;20244;-81
2023/03/15 09:25:41;;;;;;;2.93;1.10;;;;;;;4.07;74.08;100985.34;4998449;28;20232;-79
2023/03/15 09:28:09;;;;;;;2.63;1.13;;;;;;;4.23;73.37;101037.28;4998196;28;20865;-79
2023/03/15 09:30:38;;;;;;;5.33;1.57;;;;;;;4.29;72.39;101082.16;4998875;28;20238;-80
2023/03/15 09:33:04;;;;;;;3.17;1.23;;;;;;;4.29;73.19;101117.50;5017210;28;20218;-81
2023/03/15 09:35:32;;;;;;;6.20;1.27;;;;;;;4.27;73.21;101135.53;5018520;28;20207;-81
2023/03/15 09:37:58;;;;;;;4.57;1.53;;;;;;;4.40;73.81;101140.94;5018015;28;20240;-81
2023/03/15 09:40:27;;;;;;;10.13;1.80;;;;;;;4.60;74.71;101120.59;5016788;28;20233;-80
2023/03/15 09:43:02;;;;;;;6.73;3.23;;;;;;;4.71;72.05;101126.81;5017052;28;20228;-80
2023/03/15 09:45:41;;;;;;;4.00;1.63;;;;;;;4.82;72.87;101155.44;5017168;28;20234;-81
2023/03/15 09:48:11;;;;;;;4.37;1.10;;;;;;;4.89;71.65;101168.47;5017075;28;20236;-79
2023/03/15 09:50:45;;;;;;;7.97;1.33;;;;;;;4.88;72.29;101178.81;5016587;28;20228;-80
2023/03/15 09:53:16;;;;;;;6.43;1.57;;;;;;;5.02;71.80;101169.56;5018251;28;20213;-79
2023/03/15 09:55:44;;;;;;;4.80;1.80;;;;;;;5.03;70.92;101204.91;5017924;28;20237;-80
2023/03/15 09:58:14;;;;;;;4.20;0.87;;;;;;;4.56;68.15;101262.75;5016272;28;20235;-79
2023/03/15 10:00:45;;;;;;;4.57;1.10;;;;;;;4.77;70.61;101289.84;4998409;28;20257;-80
2023/03/15 10:03:18;;;;;;;4.00;1.20;;;;;;;4.98;70.08;101260.91;4996681;28;20237;-80
2023/03/15 10:05:51;;;;;;;4.53;1.30;;;;;;;5.04;65.66;101286.88;4997762;28;20234;-80
2023/03/15 10:08:19;;;;;;;4.13;1.20;;;;;;;4.98;67.00;101352.31;4997447;28;20235;-81
2023/03/15 10:10:51;;;;;;;8.47;1.30;;;;;;;4.69;66.03;101377.63;4996380;28;20226;-79
2023/03/15 10:13:32;;;;;;;7.70;1.17;;;;;;;4.72;65.83;101395.81;4995988;28;20211;-79
2023/03/15 10:16:08;;;;;;;4.10;1.60;;;;;;;4.87;66.52;101413.31;4996600;28;20206;-80
2023/03/15 10:18:46;;;;;;;3.17;1.10;;;;;;;4.78;64.47;101408.84;4996710;28;20217;-79
2023/03/15 10:21:19;;;;;;;7.03;1.30;;;;;;;4.82;65.88;101437.38;4996343;28;20223;-80
2023/03/15 10:23:49;;;;;;;3.03;1.10;;;;;;;4.91;65.00;101442.72;4996397;28;20200;-80
2023/03/15 10:26:20;;;;;;;5.93;1.70;;;;;;;4.95;65.02;101436.78;4996676;28;20209;-80
2023/03/15 10:28:48;;;;;;;4.07;1.27;;;;;;;4.85;63.19;101456.41;4996621;28;20283;-80
2023/03/15 10:31:18;;;;;;;4.13;1.03;;;;;;;4.66;65.61;101483.59;4995967;28;20249;-81
2023/03/15 10:33:46;;;;;;;4.90;1.10;;;;;;;4.37;63.70;101465.72;4995669;28;20215;-80
2023/03/15 10:36:17;;;;;;;3.13;1.10;;;;;;;4.31;65.57;101478.50;4996070;28;20214;-80
2023/03/15 10:38:43;;;;;;;7.77;0.90;;;;;;;4.49;65.74;101462.53;4997768;28;20194;-80
2023/03/15 10:41:12;;;;;;;4.17;1.20;;;;;;;4.84;65.57;101433.13;4998543;28;20231;-80
2023/03/15 10:43:40;;;;;;;2.00;0.97;;;;;;;5.20;62.04;101429.50;4998937;28;20657;-80
2023/03/15 10:46:08;;;;;;;4.00;1.50;;;;;;;5.38;59.96;101469.53;4998464;28;20273;-79
2023/03/15 10:48:36;;;;;;;2.73;1.43;;;;;;;5.38;59.72;101525.63;4999840;28;20213;-79
2023/03/15 10:51:06;;;;;;;4.10;0.83;;;;;;;4.88;59.31;101583.25;4999064;28;20287;-79
2023/03/15 10:53:34;;;;;;;2.83;1.00;;;;;;;4.81;59.21;101627.03;4998612;28;20206;-81
2023/03/15 10:56:03;;;;;;;5.93;1.17;;;;;;;4.36;62.03;101656.94;4998550;28;20207;-80
2023/03/15 10:58:40;;;;;;;4.37;1.10;;;;;;;4.40;64.17;101624.28;4998436;28;20223;-79
2023/03/15 11:01:08;;;;;;;6.63;1.10;;;;;;;4.13;65.49;101589.16;4991223;28;20227;-79
2023/03/15 11:03:36;;;;;;;4.63;0.90;;;;;;;3.94;67.58;101547.38;4997505;28;20222;-80
2023/03/15 11:06:17;;;;;;;5.10;1.17;;;;;;;3.98;67.80;101476.88;4999221;28;20253;-81
2023/03/15 11:08:45;;;;;;;3.63;1.10;;;;;;;3.85;72.52;101425.72;4997008;28;20202;-79
2023/03/15 11:11:11;;;;;;;4.53;1.13;;;;;;;3.62;75.49;101290.03;4996185;28;20221;-79
2023/03/15 11:13:39;;;;;;;3.40;1.10;;;;;;;3.68;75.75;101180.03;4996416;28;20243;-79
2023/03/15 11:16:08;;;;;;;6.43;1.10;;;;;;;3.86;74.51;101129.59;4997397;28;20299;-79
2023/03/15 11:18:42;;;;;;;4.80;1.10;;;;;;;4.02;72.96;101125.59;4998793;28;20234;-81
2023/03/15 11:21:12;;;;;;;5.00;0.90;;;;;;;4.24;72.39;101121.69;4995988;28;20250;-79
2023/03/15 11:23:42;;;;;;;3.07;0.77;;;;;;;4.57;67.97;101124.84;4995840;28;20584;-79
2023/03/15 11:26:16;;;;;;;5.03;1.43;;;;;;;4.98;66.66;101204.00;4996039;28;20277;-79
2023/03/15 11:28:47;;;;;;;3.83;0.80;;;;;;;5.34;62.85;101239.94;4992330;28;20209;-79
2023/03/15 11:31:14;;;;;;;4.37;0.90;;;;;;;5.54;59.21;101354.16;4995847;28;20756;-78
2023/03/15 11:33:47;;;;;;;3.03;1.10;;;;;;;5.78;58.92;101453.84;4995857;28;20689;-79
2023/03/15 11:36:17;;;;;;;3.97;0.73;;;;;;;6.02;58.14;101509.56;4996531;28;20223;-79
2023/03/15 11:38:45;;;;;;;3.77;0.90;;;;;;;5.96;57.74;101562.16;4993631;28;20238;-78